createdAt,value
2024-05-09T00:00:29.928Z,98830.00
2024-05-09T00:03:04.848Z,98822.44
2024-05-09T00:05:31.357Z,98821.25
2024-05-09T00:07:57.825Z,98804.59
2024-05-09T00:10:32.673Z,98823.78
2024-05-09T00:13:02.349Z,98827.94
2024-05-09T00:15:28.745Z,98822.25
2024-05-09T00:17:55.413Z,98823.53
2024-05-09T00:20:28.731Z,98827.44
2024-05-09T00:23:03.059Z,98824.41
2024-05-09T00:25:29.462Z,98821.13
2024-05-09T00:27:55.877Z,98816.25
2024-05-09T00:30:31.473Z,98815.88
2024-05-09T00:33:01.765Z,98820.63
2024-05-09T00:35:28.543Z,98821.91
2024-05-09T00:37:55.489Z,98818.88
2024-05-09T00:40:30.878Z,98814.78
2024-05-09T00:43:04.776Z,98809.91
2024-05-09T00:45:31.151Z,98805.00
2024-05-09T00:47:57.702Z,98812.41
2024-05-09T00:50:29.977Z,98808.56
2024-05-09T00:53:02.424Z,98806.34
2024-05-09T00:55:28.837Z,98809.44
2024-05-09T00:57:55.334Z,98813.38
2024-05-09T01:00:30.534Z,98807.66
2024-05-09T01:03:02.601Z,98809.75
2024-05-09T01:05:29.185Z,98807.28
2024-05-09T01:07:55.644Z,98811.19
2024-05-09T01:10:32.284Z,98811.41
2024-05-09T01:13:01.362Z,98814.28
2024-05-09T01:15:27.762Z,98812.06
2024-05-09T01:17:55.177Z,98818.44
2024-05-09T01:20:31.770Z,98815.19
2024-05-09T01:23:06.443Z,98809.50
2024-05-09T01:25:32.910Z,98811.56
2024-05-09T01:27:59.308Z,98815.47
2024-05-09T01:30:33.785Z,98816.50
2024-05-09T01:33:02.804Z,98818.59
2024-05-09T01:35:29.602Z,98822.50
2024-05-09T01:37:56.036Z,98818.44
2024-05-09T01:40:29.187Z,98824.00
2024-05-09T01:43:03.100Z,98812.94
2024-05-09T01:45:29.482Z,98821.97
2024-05-09T01:47:56.277Z,98819.50
2024-05-09T01:50:34.137Z,98820.97
2024-05-09T01:53:05.342Z,98813.41
2024-05-09T01:55:31.856Z,98811.41
2024-05-09T01:57:58.232Z,98818.00
2024-05-09T02:00:33.911Z,98822.94
2024-05-09T02:03:05.696Z,98815.41
2024-05-09T02:05:32.529Z,98820.13
2024-05-09T02:07:59.042Z,98825.91
2024-05-09T02:10:32.052Z,98821.00
2024-05-09T02:12:59.664Z,98823.06
2024-05-09T02:15:26.329Z,98817.13
2024-05-09T02:17:53.055Z,98817.34
2024-05-09T02:20:30.195Z,98812.44
2024-05-09T02:23:02.308Z,98811.66
2024-05-09T02:25:29.458Z,98811.88
2024-05-09T02:27:55.898Z,98815.75
2024-05-09T02:30:30.130Z,98808.00
2024-05-09T02:33:04.910Z,98818.88
2024-05-09T02:35:31.530Z,98812.31
2024-05-09T02:37:58.009Z,98812.56
2024-05-09T02:40:33.242Z,98810.09
2024-05-09T02:43:03.521Z,98804.16
2024-05-09T02:45:30.037Z,98811.56
2024-05-09T02:47:56.618Z,98802.97
2024-05-09T02:50:30.239Z,98814.66
2024-05-09T02:53:03.619Z,98802.75
2024-05-09T02:55:30.049Z,98810.16
2024-05-09T02:57:56.513Z,98817.53
2024-05-09T03:00:29.769Z,98814.28
2024-05-09T03:03:04.085Z,98820.84
2024-05-09T03:05:31.130Z,98821.28
2024-05-09T03:07:57.721Z,98816.19
2024-05-09T03:10:28.524Z,98827.84
2024-05-09T03:12:55.863Z,98820.31
2024-05-09T03:15:22.366Z,98816.19
2024-05-09T03:17:48.918Z,98819.09
2024-05-09T03:20:23.200Z,98818.47
2024-05-09T03:22:52.723Z,98810.69
2024-05-09T03:25:20.452Z,98827.72
2024-05-09T03:27:46.830Z,98822.63
2024-05-09T03:30:25.616Z,98822.84
2024-05-09T03:32:57.295Z,98818.75
2024-05-09T03:35:23.991Z,98817.31
2024-05-09T03:37:50.543Z,98814.84
2024-05-09T03:40:23.391Z,98811.59
2024-05-09T03:42:52.570Z,98817.34
2024-05-09T03:45:18.962Z,98816.53
2024-05-09T03:47:46.182Z,98817.56
2024-05-09T03:50:22.693Z,98818.59
2024-05-09T03:53:02.377Z,98821.44
2024-05-09T03:55:28.966Z,98826.78
2024-05-09T03:57:55.357Z,98826.78
2024-05-09T04:00:30.779Z,98819.84
2024-05-09T04:03:03.794Z,98822.50
2024-05-09T04:05:33.810Z,98821.66
2024-05-09T04:08:00.461Z,98824.34
2024-05-09T04:10:32.371Z,98825.16
2024-05-09T04:13:00.432Z,98819.41
2024-05-09T04:15:26.826Z,98825.13
2024-05-09T04:17:53.550Z,98824.50
2024-05-09T04:20:29.306Z,98825.50
2024-05-09T04:23:03.691Z,98834.06
2024-05-09T04:25:30.133Z,98842.59
2024-05-09T04:27:56.540Z,98838.22
2024-05-09T04:30:33.685Z,98845.13
2024-05-09T04:33:04.806Z,98852.19
2024-05-09T04:35:31.381Z,98851.50
2024-05-09T04:37:57.985Z,98854.94
2024-05-09T04:40:31.458Z,98849.56
2024-05-09T04:43:01.478Z,98852.78
2024-05-09T04:45:27.885Z,98845.53
2024-05-09T04:47:54.479Z,98852.44
2024-05-09T04:50:29.754Z,98854.25
2024-05-09T04:53:02.432Z,98858.91
2024-05-09T04:55:28.876Z,98854.69
2024-05-09T04:57:55.266Z,98863.88
2024-05-09T05:00:28.861Z,98866.59
2024-05-09T05:03:01.966Z,98863.22
2024-05-09T05:05:28.655Z,98865.94
2024-05-09T05:07:55.070Z,98866.25
2024-05-09T05:10:29.012Z,98865.50
2024-05-09T05:13:00.035Z,98862.06
2024-05-09T05:15:26.434Z,98857.59
2024-05-09T05:17:52.960Z,98869.16
2024-05-09T05:20:27.394Z,98875.38
2024-05-09T05:22:59.407Z,98877.88
2024-05-09T05:25:25.828Z,98873.38
2024-05-09T05:27:52.225Z,98876.41
2024-05-09T05:30:24.950Z,98877.25
2024-05-09T05:32:55.340Z,98884.88
2024-05-09T05:35:22.027Z,98880.09
2024-05-09T05:37:48.451Z,98888.94
2024-05-09T05:40:24.769Z,98885.56
2024-05-09T05:42:54.867Z,98881.59
2024-05-09T05:45:21.253Z,98885.66
2024-05-09T05:47:47.964Z,98889.16
2024-05-09T05:50:23.602Z,98888.66
2024-05-09T05:52:54.227Z,98890.81
2024-05-09T05:55:20.574Z,98892.16
2024-05-09T05:57:46.989Z,98891.88
2024-05-09T06:00:21.571Z,98889.97
2024-05-09T06:02:55.141Z,98902.06
2024-05-09T06:05:21.642Z,98902.31
2024-05-09T06:07:48.043Z,98903.63
2024-05-09T06:10:21.272Z,98898.72
2024-05-09T06:12:52.117Z,98904.34
2024-05-09T06:15:18.577Z,98910.81
2024-05-09T06:17:45.164Z,98905.06
2024-05-09T06:20:20.217Z,98904.47
2024-05-09T06:22:50.529Z,98909.25
2024-05-09T06:25:18.336Z,98906.19
2024-05-09T06:27:44.705Z,98900.66
2024-05-09T06:30:24.815Z,98906.75
2024-05-09T06:32:55.926Z,98901.81
2024-05-09T06:35:22.564Z,98898.72
2024-05-09T06:37:49.066Z,98899.38
2024-05-09T06:40:21.195Z,98901.41
2024-05-09T06:42:51.740Z,98905.59
2024-05-09T06:45:18.166Z,98901.69
2024-05-09T06:47:44.784Z,98900.41
2024-05-09T06:50:19.700Z,98900.81
2024-05-09T06:52:50.073Z,98899.53
2024-05-09T06:55:19.411Z,98900.13
2024-05-09T06:57:45.864Z,98903.50
2024-05-09T07:00:15.686Z,98902.75
2024-05-09T07:02:48.971Z,98899.06
2024-05-09T07:05:15.885Z,98908.28
2024-05-09T07:07:42.412Z,98897.00
2024-05-09T07:10:12.243Z,98906.25
2024-05-09T07:12:51.757Z,98904.66
2024-05-09T07:15:18.364Z,98900.38
2024-05-09T07:17:48.239Z,98905.50
2024-05-09T07:20:22.940Z,98901.22
2024-05-09T07:22:54.315Z,98903.91
2024-05-09T07:25:20.768Z,98902.06
2024-05-09T07:27:47.157Z,98897.50
2024-05-09T07:30:19.939Z,98894.78
2024-05-09T07:32:49.736Z,98896.91
2024-05-09T07:35:16.473Z,98890.41
2024-05-09T07:37:42.932Z,98903.41
2024-05-09T07:40:12.040Z,98893.38
2024-05-09T07:42:49.123Z,98891.16
2024-05-09T07:45:38.925Z,98898.97
2024-05-09T07:53:36.011Z,98919.88
2024-05-09T07:55:47.044Z,98932.25
2024-05-09T07:58:13.568Z,98936.50
2024-05-09T08:00:40.038Z,98934.78
2024-05-09T08:03:06.567Z,98955.28
2024-05-09T08:05:33.111Z,98960.56
2024-05-09T08:07:59.660Z,98965.34
2024-05-09T08:10:28.955Z,98980.41
2024-05-09T08:12:55.857Z,98980.06
2024-05-09T08:15:22.526Z,98989.94
2024-05-09T08:17:49.043Z,98998.50
2024-05-09T08:20:22.941Z,98998.66
2024-05-09T08:22:56.972Z,99006.13
2024-05-09T08:25:26.654Z,99008.41
2024-05-09T08:27:53.602Z,99013.47
2024-05-09T08:33:04.047Z,99019.41
2024-05-09T08:35:30.606Z,99014.94
2024-05-09T08:37:57.222Z,99013.72
2024-05-09T08:40:30.886Z,99024.44
2024-05-09T08:43:04.480Z,99017.75
2024-05-09T08:45:31.202Z,99006.06
2024-05-09T08:47:57.889Z,98997.84
2024-05-09T08:50:32.167Z,98978.59
2024-05-09T08:53:04.654Z,98934.09
2024-05-09T08:55:33.649Z,98876.63
2024-05-09T08:58:00.119Z,98809.53
2024-05-09T09:00:35.530Z,98793.94
2024-05-09T09:03:03.585Z,98797.03
2024-05-09T09:05:30.185Z,98791.25
2024-05-09T09:07:56.674Z,98792.19
2024-05-09T09:10:29.715Z,98792.53
2024-05-09T09:12:58.680Z,98797.75
2024-05-09T09:15:25.112Z,98795.38
2024-05-09T09:17:51.769Z,98804.59
2024-05-09T09:20:25.940Z,98806.75
2024-05-09T09:22:55.764Z,98805.16
2024-05-09T09:25:29.953Z,98805.22
2024-05-09T09:28:00.246Z,98809.00
2024-05-09T09:30:34.975Z,98805.50
2024-05-09T09:33:04.326Z,98813.91
2024-05-09T09:35:30.806Z,98814.47
2024-05-09T09:37:57.172Z,98815.53
2024-05-09T09:40:31.028Z,98805.00
2024-05-09T09:42:59.067Z,98805.00
2024-05-09T09:45:25.513Z,98801.53
2024-05-09T09:47:51.962Z,98804.25
2024-05-09T09:50:24.077Z,98804.25
2024-05-09T09:52:57.968Z,98799.44
2024-05-09T09:55:24.468Z,98795.13
2024-05-09T09:57:50.912Z,98788.41
2024-05-09T10:00:23.658Z,98795.72
2024-05-09T10:02:53.447Z,98785.16
2024-05-09T10:05:19.991Z,98791.69
2024-05-09T10:07:46.548Z,98786.84
2024-05-09T10:10:16.270Z,98783.34
2024-05-09T10:12:46.379Z,98787.41
2024-05-09T10:15:13.121Z,98779.03
2024-05-09T10:17:39.654Z,98793.66
2024-05-09T10:20:14.407Z,98783.94
2024-05-09T10:22:47.395Z,98784.25
2024-05-09T10:25:13.886Z,98778.03
2024-05-09T10:27:40.350Z,98775.91
2024-05-09T10:30:11.607Z,98775.06
2024-05-09T10:32:41.807Z,98774.25
2024-05-09T10:35:08.335Z,98778.34
2024-05-09T10:37:34.785Z,98773.19
2024-05-09T10:40:01.318Z,98765.09
2024-05-09T10:42:27.847Z,98767.81
2024-05-09T10:44:54.248Z,98761.31
2024-05-09T10:47:20.646Z,98756.75
2024-05-09T10:49:47.253Z,98759.69
2024-05-09T10:52:14.028Z,98754.03
2024-05-09T10:54:40.549Z,98755.91
2024-05-09T10:57:07.148Z,98753.50
2024-05-09T10:59:33.563Z,98755.63
2024-05-09T11:02:00.363Z,98751.06
2024-05-09T11:04:27.157Z,98749.72
2024-05-09T11:06:53.742Z,98745.91
2024-05-09T11:09:20.251Z,98754.56
2024-05-09T11:11:46.751Z,98741.88
2024-05-09T11:14:13.151Z,98751.59
2024-05-09T11:16:39.674Z,98751.59
2024-05-09T11:19:06.186Z,98745.91
2024-05-09T11:21:32.807Z,98745.09
2024-05-09T11:23:59.265Z,98741.88
2024-05-09T11:26:25.677Z,98745.38
2024-05-09T11:28:52.083Z,98736.47
2024-05-09T11:31:19.758Z,98745.38
2024-05-09T11:33:46.584Z,98741.06
2024-05-09T11:36:13.177Z,98734.59
2024-05-09T11:38:39.573Z,98739.97
2024-05-09T11:41:06.157Z,98730.00
2024-05-09T11:43:32.704Z,98734.59
2024-05-09T11:45:59.246Z,98729.47
2024-05-09T11:48:26.192Z,98732.44
2024-05-09T11:50:52.860Z,98730.78
2024-05-09T11:53:19.363Z,98728.91
2024-05-09T11:55:45.805Z,98728.09
2024-05-09T11:58:12.364Z,98728.09
2024-05-09T12:00:39.132Z,98725.41
2024-05-09T12:03:06.098Z,98729.72
2024-05-09T12:05:33.359Z,98726.50
2024-05-09T12:08:00.479Z,98721.38
2024-05-09T12:10:33.042Z,98718.66
2024-05-09T12:13:02.014Z,98721.66
2024-05-09T12:15:28.791Z,98722.44
2024-05-09T12:17:58.182Z,98717.31
2024-05-09T12:20:34.381Z,98721.38
2024-05-09T12:23:03.738Z,98715.44
2024-05-09T12:25:30.163Z,98713.78
2024-05-09T12:27:56.553Z,98711.09
2024-05-09T12:30:32.767Z,98707.34
2024-05-09T12:33:04.085Z,98704.91
2024-05-09T12:35:30.727Z,98701.13
2024-05-09T12:37:57.116Z,98703.00
2024-05-09T12:40:31.821Z,98700.28
2024-05-09T12:43:02.899Z,98703.81
2024-05-09T12:45:29.378Z,98703.81
2024-05-09T12:47:55.904Z,98701.41
2024-05-09T12:50:31.102Z,98695.44
2024-05-09T12:52:59.431Z,98690.31
2024-05-09T12:55:40.378Z,98691.16
2024-05-09T12:58:17.878Z,98681.16
2024-05-09T13:00:44.699Z,98679.53
2024-05-09T13:03:11.457Z,98677.66
2024-05-09T13:05:38.028Z,98666.88
2024-05-09T13:08:09.799Z,98667.41
2024-05-09T13:10:39.946Z,98660.38
2024-05-09T13:13:06.477Z,98656.88
2024-05-09T13:15:33.042Z,98649.56
2024-05-09T13:18:02.628Z,98654.19
2024-05-09T13:20:34.399Z,98647.97
2024-05-09T13:23:02.401Z,98653.38
2024-05-09T13:25:28.890Z,98647.97
2024-05-09T13:27:55.347Z,98649.84
2024-05-09T13:30:29.366Z,98650.13
2024-05-09T13:33:04.384Z,98643.66
2024-05-09T13:35:30.844Z,98646.38
2024-05-09T13:37:57.244Z,98646.09
2024-05-09T13:40:32.194Z,98647.97
2024-05-09T13:43:01.175Z,98637.47
2024-05-09T13:45:27.649Z,98638.50
2024-05-09T13:47:54.218Z,98636.91
2024-05-09T13:50:30.935Z,98647.72
2024-05-09T13:53:01.285Z,98636.09
2024-05-09T13:55:27.773Z,98641.50
2024-05-09T13:57:54.358Z,98633.41
2024-05-09T14:02:50.148Z,98626.94
2024-05-09T14:05:16.892Z,98624.25
2024-05-09T14:07:43.443Z,98615.34
2024-05-09T14:10:19.514Z,98619.13
2024-05-09T14:12:49.593Z,98619.38
2024-05-09T14:15:16.048Z,98613.44
2024-05-09T14:17:42.574Z,98614.50
2024-05-09T14:20:13.964Z,98610.19
2024-05-09T14:22:40.677Z,98602.63
2024-05-09T14:25:07.148Z,98604.00
2024-05-09T14:27:33.733Z,98602.63
2024-05-09T14:30:00.184Z,98599.38
2024-05-09T14:32:26.822Z,98598.84
2024-05-09T14:34:53.385Z,98599.94
2024-05-09T14:37:19.950Z,98599.94
2024-05-09T14:39:46.481Z,98598.34
2024-05-09T14:42:13.969Z,98588.88
2024-05-09T14:47:08.609Z,98592.13
2024-05-09T14:49:37.537Z,98584.59
2024-05-09T14:52:04.643Z,98581.34
2024-05-09T14:54:31.112Z,98577.00
2024-05-09T14:56:58.234Z,98570.03
2024-05-09T14:59:24.730Z,98574.59
2024-05-09T15:01:51.241Z,98568.94
2024-05-09T15:04:17.887Z,98573.00
2024-05-09T15:06:44.341Z,98570.28
2024-05-09T15:09:10.807Z,98558.69
2024-05-09T15:11:37.346Z,98567.06
2024-05-09T15:14:03.810Z,98561.66
2024-05-09T15:16:30.376Z,98558.41
2024-05-09T15:18:57.046Z,98553.84
2024-05-09T15:21:24.203Z,98559.78
2024-05-09T15:23:50.636Z,98554.91
2024-05-09T15:26:17.131Z,98553.56
2024-05-09T15:28:43.531Z,98551.69
2024-05-09T15:31:09.965Z,98548.72
2024-05-09T15:33:36.564Z,98546.00
2024-05-09T15:36:03.020Z,98557.34
2024-05-09T15:38:29.377Z,98556.25
2024-05-09T15:40:56.090Z,98557.88
2024-05-09T15:43:22.546Z,98556.25
2024-05-09T15:45:49.068Z,98558.66
2024-05-09T15:48:15.607Z,98560.59
2024-05-09T15:50:44.573Z,98561.38
2024-05-09T15:53:12.056Z,98560.59
2024-05-09T15:55:39.198Z,98559.50
2024-05-09T15:58:06.434Z,98557.88
2024-05-09T16:00:38.312Z,98548.97
2024-05-09T16:03:08.188Z,98553.56
2024-05-09T16:05:34.898Z,98553.56
2024-05-09T16:08:04.527Z,98557.34
2024-05-09T16:10:33.237Z,98547.63
2024-05-09T16:13:01.272Z,98543.31
2024-05-09T16:15:27.932Z,98541.44
2024-05-09T16:17:54.434Z,98541.69
2024-05-09T16:20:33.764Z,98542.78
2024-05-09T16:23:05.537Z,98543.88
2024-05-09T16:25:31.950Z,98540.63
2024-05-09T16:27:58.455Z,98548.72
2024-05-09T16:30:31.758Z,98543.59
2024-05-09T16:33:01.861Z,98545.47
2024-05-09T16:35:28.446Z,98532.28
2024-05-09T16:37:54.921Z,98540.63
2024-05-09T16:43:07.290Z,98535.75
2024-05-09T16:45:34.330Z,98540.59
2024-05-09T16:48:01.254Z,98541.69
2024-05-09T16:50:32.573Z,98540.88
2024-05-09T16:53:01.077Z,98537.66
2024-05-09T16:55:27.731Z,98540.63
2024-05-09T16:57:54.465Z,98537.38
2024-05-09T17:00:31.244Z,98545.47
2024-05-09T17:03:06.413Z,98541.16
2024-05-09T17:05:33.585Z,98548.44
2024-05-09T17:08:00.251Z,98542.53
2024-05-09T17:10:32.287Z,98534.69
2024-05-09T17:13:00.914Z,98538.47
2024-05-09T17:15:27.450Z,98540.63
2024-05-09T17:17:53.936Z,98538.19
2024-05-09T17:20:29.374Z,98539.53
2024-05-09T17:23:00.248Z,98537.94
2024-05-09T17:25:26.656Z,98529.28
2024-05-09T17:27:53.109Z,98540.59
2024-05-09T17:30:28.803Z,98540.06
2024-05-09T17:33:01.127Z,98539.50
2024-05-09T17:35:27.688Z,98545.44
2024-05-09T17:37:54.099Z,98538.69
2024-05-09T17:40:30.051Z,98540.06
2024-05-09T17:42:59.906Z,98539.50
2024-05-09T17:45:26.388Z,98540.06
2024-05-09T17:47:53.022Z,98536.81
2024-05-09T17:50:27.328Z,98538.97
2024-05-09T17:53:00.083Z,98537.59
2024-05-09T17:55:26.495Z,98547.03
2024-05-09T17:57:56.106Z,98538.41
2024-05-09T18:00:32.871Z,98527.34
2024-05-09T18:03:05.049Z,98539.47
2024-05-09T18:05:34.034Z,98540.81
2024-05-09T18:08:00.589Z,98534.88
2024-05-09T18:10:34.834Z,98538.13
2024-05-09T18:13:04.248Z,98537.56
2024-05-09T18:15:30.880Z,98541.59
2024-05-09T18:17:57.443Z,98536.75
2024-05-09T18:23:08.350Z,98538.06
2024-05-09T18:25:34.900Z,98547.50
2024-05-09T18:28:01.608Z,98538.31
2024-05-09T18:30:33.747Z,98539.88
2024-05-09T18:33:02.634Z,98535.84
2024-05-09T18:35:29.304Z,98536.38
2024-05-09T18:37:55.758Z,98542.28
2024-05-09T18:40:31.209Z,98542.00
2024-05-09T18:43:01.643Z,98540.91
2024-05-09T18:45:29.184Z,98536.84
2024-05-09T18:47:55.858Z,98534.97
2024-05-09T18:50:31.846Z,98537.38
2024-05-09T18:53:05.219Z,98529.28
2024-05-09T18:55:31.621Z,98546.75
2024-05-09T18:57:58.057Z,98548.06
2024-05-09T19:00:33.303Z,98528.34
2024-05-09T19:03:03.538Z,98552.09
2024-05-09T19:05:30.477Z,98555.31
2024-05-09T19:07:57.090Z,98555.81
2024-05-09T19:10:26.408Z,98550.13
2024-05-09T19:12:58.691Z,98559.56
2024-05-09T19:15:25.250Z,98553.88
2024-05-09T19:17:51.753Z,98555.19
2024-05-09T19:20:25.263Z,98565.41
2024-05-09T19:22:57.850Z,98555.44
2024-05-09T19:25:24.372Z,98561.03
2024-05-09T19:27:50.779Z,98562.38
2024-05-09T19:30:25.400Z,98563.72
2024-05-09T19:33:00.890Z,98562.34
2024-05-09T19:35:27.399Z,98565.53
2024-05-09T19:37:54.007Z,98566.88
2024-05-09T19:40:28.609Z,98568.19
2024-05-09T19:42:58.174Z,98552.75
2024-05-09T19:45:24.642Z,98575.16
2024-05-09T19:47:51.266Z,98578.38
2024-05-09T19:50:26.426Z,98579.69
2024-05-09T19:52:59.100Z,98581.81
2024-05-09T19:55:25.486Z,98575.91
2024-05-09T19:57:51.983Z,98579.09
2024-05-09T20:00:25.947Z,98582.84
2024-05-09T20:02:55.953Z,98580.69
2024-05-09T20:05:23.034Z,98583.59
2024-05-09T20:07:49.620Z,98591.94
2024-05-09T20:10:23.366Z,98582.50
2024-05-09T20:12:53.170Z,98585.47
2024-05-09T20:15:19.687Z,98577.88
2024-05-09T20:17:46.337Z,98583.78
2024-05-09T20:20:23.468Z,98583.22
2024-05-09T20:22:55.164Z,98583.47
2024-05-09T20:25:21.656Z,98584.00
2024-05-09T20:27:48.307Z,98586.94
2024-05-09T20:30:21.044Z,98589.06
2024-05-09T20:32:51.964Z,98585.81
2024-05-09T20:35:18.414Z,98587.13
2024-05-09T20:37:44.797Z,98591.97
2024-05-09T20:40:18.198Z,98581.47
2024-05-09T20:42:51.396Z,98585.47
2024-05-09T20:45:17.850Z,98588.69
2024-05-09T20:47:44.360Z,98580.81
2024-05-09T20:50:20.259Z,98582.97
2024-05-09T20:52:54.721Z,98583.19
2024-05-09T20:55:21.227Z,98583.47
2024-05-09T20:57:47.654Z,98588.28
2024-05-09T21:00:18.723Z,98585.06
2024-05-09T21:02:48.637Z,98584.50
2024-05-09T21:05:15.293Z,98583.94
2024-05-09T21:07:41.824Z,98586.03
2024-05-09T21:10:15.471Z,98594.34
2024-05-09T21:12:46.025Z,98587.59
2024-05-09T21:15:12.495Z,98589.75
2024-05-09T21:17:39.032Z,98594.31
2024-05-09T21:20:11.409Z,98597.25
2024-05-09T21:22:40.826Z,98593.19
2024-05-09T21:25:07.257Z,98595.31
2024-05-09T21:27:33.805Z,98594.75
2024-05-09T21:30:00.774Z,98593.13
2024-05-09T21:32:27.314Z,98592.81
2024-05-09T21:34:53.771Z,98588.53
2024-05-09T21:37:20.185Z,98589.81
2024-05-09T21:39:46.734Z,98595.44
2024-05-09T21:42:13.216Z,98588.69
2024-05-09T21:44:39.821Z,98593.75
2024-05-09T21:47:06.406Z,98590.22
2024-05-09T21:49:32.966Z,98589.91
2024-05-09T21:51:59.923Z,98586.34
2024-05-09T21:54:26.314Z,98587.09
2024-05-09T21:56:52.799Z,98580.03
2024-05-09T21:59:19.217Z,98576.22
2024-05-09T22:01:45.728Z,98575.06
2024-05-09T22:04:12.280Z,98581.19
2024-05-09T22:06:38.817Z,98583.56
2024-05-09T22:09:05.238Z,98587.78
2024-05-09T22:11:31.675Z,98587.72
2024-05-09T22:13:58.111Z,98587.41
2024-05-09T22:16:24.648Z,98585.47
2024-05-09T22:18:51.323Z,98586.19
2024-05-09T22:21:17.806Z,98599.28
2024-05-09T22:23:44.253Z,98595.50
2024-05-09T22:26:10.611Z,98596.22
2024-05-09T22:28:37.028Z,98599.66
2024-05-09T22:31:03.491Z,98596.88
2024-05-09T22:33:30.082Z,98600.03
2024-05-09T22:35:56.524Z,98595.44
2024-05-09T22:38:22.963Z,98600.47
2024-05-09T22:40:50.149Z,98604.69
2024-05-09T22:43:17.023Z,98602.50
2024-05-09T22:45:43.757Z,98603.22
2024-05-09T22:48:10.554Z,98603.91
2024-05-09T22:50:37.131Z,98600.66
2024-05-09T22:53:03.593Z,98598.47
2024-05-09T22:55:30.370Z,98598.16
2024-05-09T22:57:56.916Z,98592.47
2024-05-09T23:00:31.261Z,98598.31
2024-05-09T23:02:59.408Z,98594.47
2024-05-09T23:05:25.960Z,98593.13
2024-05-09T23:07:52.415Z,98593.81
2024-05-09T23:10:27.317Z,98589.22
2024-05-09T23:12:58.686Z,98581.41
2024-05-09T23:15:25.153Z,98587.03
2024-05-09T23:17:51.767Z,98588.53
2024-05-09T23:20:29.616Z,98586.34
2024-05-09T23:23:03.071Z,98589.50
2024-05-09T23:25:29.466Z,98584.06
2024-05-09T23:27:55.917Z,98580.00
2024-05-09T23:30:32.998Z,98582.34
2024-05-09T23:33:04.181Z,98580.13
2024-05-09T23:35:30.644Z,98576.66
2024-05-09T23:37:57.010Z,98575.25
2024-05-09T23:40:26.719Z,98581.94
2024-05-09T23:43:00.745Z,98569.00
2024-05-09T23:45:27.163Z,98572.16
2024-05-09T23:47:53.706Z,98568.91
2024-05-09T23:50:30.267Z,98568.13
2024-05-09T23:53:00.442Z,98558.44
2024-05-09T23:55:27.002Z,98566.72
2024-05-09T23:57:53.479Z,98566.16
